createdAt,value
2018-09-14T00:00:53.517Z,1134.06
2018-09-14T00:01:53.548Z,1134.07
2018-09-14T00:02:53.528Z,1134
2018-09-14T00:03:53.509Z,1133.99
2018-09-14T00:04:53.542Z,1133.94
2018-09-14T00:05:53.523Z,1133.95
2018-09-14T00:06:53.526Z,1133.95
2018-09-14T00:07:53.533Z,1133.9
2018-09-14T00:08:53.535Z,1133.87
2018-09-14T00:09:53.562Z,1133.86
2018-09-14T00:10:53.592Z,1133.87
2018-09-14T00:11:53.601Z,1133.87
2018-09-14T00:12:53.635Z,1133.92
2018-09-14T00:13:53.605Z,1133.88
2018-09-14T00:14:53.545Z,1133.86
2018-09-14T00:15:53.553Z,1133.85
2018-09-14T00:16:53.532Z,1133.86
2018-09-14T00:17:53.563Z,1133.8
2018-09-14T00:18:53.613Z,1133.77
2018-09-14T00:19:53.546Z,1133.75
2018-09-14T00:20:53.544Z,1133.74
2018-09-14T00:21:53.550Z,1133.84
2018-09-14T00:22:53.555Z,1133.81
2018-09-14T00:23:53.574Z,1133.8
2018-09-14T00:24:53.624Z,1133.83
2018-09-14T00:25:53.635Z,1133.79
2018-09-14T00:26:53.571Z,1133.78
2018-09-14T00:27:53.553Z,1133.77
2018-09-14T00:28:53.560Z,1133.71
2018-09-14T00:29:53.634Z,1133.67
2018-09-14T00:30:53.590Z,1133.55
2018-09-14T00:31:53.580Z,1133.49
2018-09-14T00:32:53.586Z,1133.46
2018-09-14T00:33:53.568Z,1133.38
2018-09-14T00:34:53.568Z,1133.28
2018-09-14T00:35:53.573Z,1133.23
2018-09-14T00:36:53.568Z,1133.19
2018-09-14T00:37:53.595Z,1133.16
2018-09-14T00:38:53.574Z,1133.09
2018-09-14T00:39:53.572Z,1133.05
2018-09-14T00:40:53.576Z,1132.96
2018-09-14T00:41:53.597Z,1132.93
2018-09-14T00:42:53.589Z,1132.9
2018-09-14T00:47:22.793Z,1132.71
2018-09-14T00:48:22.770Z,1132.65
2018-09-14T00:57:13.892Z,1132.36
2018-09-14T00:58:13.872Z,1132.38
2018-09-14T00:59:13.800Z,1132.36
2018-09-14T01:00:13.874Z,1132.34
2018-09-14T01:01:13.812Z,1132.22
2018-09-14T01:02:13.858Z,1132.16
2018-09-14T01:03:13.795Z,1132.24
2018-09-14T01:04:13.802Z,1132.04
2018-09-14T01:05:13.812Z,1132.07
2018-09-14T01:06:13.872Z,1132.04
2018-09-14T01:07:13.836Z,1132.02
2018-09-14T01:08:13.830Z,1131.94
2018-09-14T01:09:13.892Z,1131.96
2018-09-14T01:10:13.833Z,1131.87
2018-09-14T01:11:13.819Z,1131.89
2018-09-14T01:12:13.825Z,1131.91
2018-09-14T01:13:13.884Z,1131.91
2018-09-14T01:14:13.860Z,1131.83
2018-09-14T01:15:13.812Z,1131.82
2018-09-14T01:16:13.837Z,1131.77
2018-09-14T01:17:13.903Z,1131.77
2018-09-14T01:18:13.813Z,1131.74
2018-09-14T01:24:54.337Z,1131.74
2018-09-14T01:25:54.296Z,1131.72
2018-09-14T01:26:54.297Z,1131.56
2018-09-14T01:27:54.354Z,1131.62
2018-09-14T01:28:54.308Z,1131.57
2018-09-14T01:29:55.119Z,1131.51
2018-09-14T01:30:54.311Z,1131.51
2018-09-14T01:31:54.349Z,1131.48
2018-09-14T01:32:54.320Z,1131.39
2018-09-14T01:33:54.314Z,1131.44
2018-09-14T01:34:54.331Z,1131.39
2018-09-14T01:35:54.323Z,1131.33
2018-09-14T01:36:54.321Z,1131.32
2018-09-14T01:37:54.320Z,1131.26
2018-09-14T01:38:54.333Z,1131.21
2018-09-14T01:39:54.340Z,1131.14
2018-09-14T01:40:54.345Z,1131.09
2018-09-14T01:43:54.395Z,1131.06
2018-09-14T01:44:54.366Z,1131
2018-09-14T01:45:54.350Z,1131.08
2018-09-14T01:46:54.349Z,1131.01
2018-09-14T01:47:54.358Z,1131.03
2018-09-14T01:48:54.372Z,1131.01
2018-09-14T01:49:54.336Z,1130.89
2018-09-14T01:56:32.205Z,1131
2018-09-14T01:57:32.265Z,1130.95
2018-09-14T01:58:32.236Z,1130.97
2018-09-14T01:59:32.195Z,1131.01
2018-09-14T02:00:32.213Z,1130.92
2018-09-14T02:01:32.224Z,1130.95
2018-09-14T02:08:10.196Z,1131
2018-09-14T02:09:10.157Z,1131
2018-09-14T02:10:10.160Z,1130.98
2018-09-14T02:11:10.172Z,1130.9
2018-09-14T02:12:10.185Z,1130.97
2018-09-14T02:13:10.162Z,1130.92
2018-09-14T02:14:10.191Z,1130.97
2018-09-14T02:15:10.179Z,1131.06
2018-09-14T02:16:10.855Z,1131.07
2018-09-14T02:17:10.172Z,1131.03
2018-09-14T02:18:10.245Z,1131.11
2018-09-14T02:19:10.186Z,1131.04
2018-09-14T02:20:10.165Z,1131.16
2018-09-14T02:21:10.188Z,1131.08
2018-09-14T02:22:10.210Z,1131.12
2018-09-14T02:23:10.278Z,1131.16
2018-09-14T02:24:10.196Z,1131.12
2018-09-14T02:25:10.195Z,1131.13
2018-09-14T02:26:10.245Z,1131.17
2018-09-14T02:27:10.180Z,1131.2
2018-09-14T02:28:10.188Z,1131.16
2018-09-14T02:29:10.188Z,1131.11
2018-09-14T02:30:10.188Z,1131.05
2018-09-14T02:31:10.235Z,1130.87
2018-09-14T02:32:10.206Z,1130.72
2018-09-14T02:33:10.178Z,1130.66
2018-09-14T02:34:10.202Z,1130.58
2018-09-14T02:35:10.201Z,1130.54
2018-09-14T02:36:10.219Z,1130.49
2018-09-14T02:37:10.201Z,1130.42
2018-09-14T02:38:10.209Z,1130.48
2018-09-14T02:39:10.200Z,1130.44
2018-09-14T02:40:10.203Z,1130.5
2018-09-14T02:41:10.237Z,1130.42
2018-09-14T02:42:10.208Z,1130.43
2018-09-14T02:43:10.208Z,1130.36
2018-09-14T02:44:10.212Z,1130.43
2018-09-14T02:45:10.236Z,1130.39
2018-09-14T02:46:10.250Z,1130.42
2018-09-14T02:47:10.199Z,1130.33
2018-09-14T02:48:10.217Z,1130.37
2018-09-14T02:49:10.228Z,1130.33
2018-09-14T02:50:10.219Z,1130.29
2018-09-14T02:51:10.231Z,1130.23
2018-09-14T02:52:10.216Z,1130.29
2018-09-14T02:53:10.243Z,1130.25
2018-09-14T02:54:10.260Z,1130.27
2018-09-14T02:55:10.217Z,1130.16
2018-09-14T02:56:10.230Z,1130.23
2018-09-14T02:57:10.231Z,1130.13
2018-09-14T02:58:10.324Z,1130.08
2018-09-14T02:59:10.251Z,1130.18
2018-09-14T03:00:10.274Z,1130.17
2018-09-14T03:01:10.225Z,1130.15
2018-09-14T03:02:10.241Z,1130.22
2018-09-14T03:03:10.234Z,1130.21
2018-09-14T03:04:10.251Z,1130.2
2018-09-14T03:05:10.257Z,1130.08
2018-09-14T03:06:10.254Z,1129.97
2018-09-14T03:07:14.387Z,1129.95
2018-09-14T03:08:10.244Z,1129.89
2018-09-14T03:09:10.236Z,1129.92
2018-09-14T03:10:11.081Z,1129.85
2018-09-14T03:11:10.262Z,1129.76
2018-09-14T03:12:10.244Z,1129.8
2018-09-14T03:13:10.248Z,1129.81
2018-09-14T03:14:10.272Z,1129.77
2018-09-14T03:15:10.263Z,1129.79
2018-09-14T03:16:10.264Z,1129.7
2018-09-14T03:17:10.271Z,1129.68
2018-09-14T03:18:10.271Z,1129.62
2018-09-14T03:19:10.271Z,1129.57
2018-09-14T03:20:10.275Z,1129.43
2018-09-14T03:21:10.268Z,1129.42
2018-09-14T03:22:10.295Z,1129.36
2018-09-14T03:23:10.270Z,1129.21
2018-09-14T03:24:10.281Z,1129
2018-09-14T03:25:10.276Z,1129.01
2018-09-14T03:26:10.285Z,1128.9
2018-09-14T03:27:10.300Z,1128.74
2018-09-14T03:28:10.368Z,1128.72
2018-09-14T03:29:10.287Z,1128.71
2018-09-14T03:30:10.317Z,1128.66
2018-09-14T03:31:10.293Z,1128.63
2018-09-14T03:32:10.295Z,1128.54
2018-09-14T03:33:10.291Z,1128.42
2018-09-14T03:34:10.304Z,1128.38
2018-09-14T03:35:10.326Z,1128.33
2018-09-14T03:36:10.290Z,1128.33
2018-09-14T03:37:10.601Z,1128.23
2018-09-14T03:38:10.299Z,1128.32
2018-09-14T03:39:10.338Z,1128.3
2018-09-14T03:40:10.317Z,1128.4
2018-09-14T03:41:10.310Z,1128.32
2018-09-14T03:42:10.299Z,1128.45
2018-09-14T03:43:10.406Z,1128.5
2018-09-14T03:44:10.397Z,1128.45
2018-09-14T03:45:10.311Z,1128.43
2018-09-14T03:46:10.390Z,1128.47
2018-09-14T03:47:10.316Z,1128.5
2018-09-14T03:48:10.332Z,1128.44
2018-09-14T03:49:10.332Z,1128.43
2018-09-14T03:50:10.343Z,1128.35
2018-09-14T03:51:10.328Z,1128.4
2018-09-14T03:52:10.361Z,1128.38
2018-09-14T03:53:10.323Z,1128.35
2018-09-14T03:54:10.332Z,1128.25
2018-09-14T03:55:10.737Z,1128.17
2018-09-14T03:56:10.411Z,1128.16
2018-09-14T03:57:10.389Z,1128.07
2018-09-14T03:58:10.352Z,1127.85
2018-09-14T03:59:10.342Z,1127.84
2018-09-14T04:00:10.387Z,1127.75
2018-09-14T04:01:10.346Z,1127.69
2018-09-14T04:02:10.325Z,1127.71
2018-09-14T04:03:10.352Z,1127.76
2018-09-14T04:07:40.210Z,1127.79
2018-09-14T04:08:40.127Z,1127.74
2018-09-14T04:09:40.118Z,1127.73
2018-09-14T04:10:40.126Z,1127.67
2018-09-14T04:11:40.135Z,1127.73
2018-09-14T04:12:40.125Z,1127.63
2018-09-14T04:13:40.167Z,1127.57
2018-09-14T04:14:40.127Z,1127.73
2018-09-14T04:19:09.751Z,1127.94
2018-09-14T04:20:09.726Z,1127.93
2018-09-14T04:21:09.731Z,1127.96
2018-09-14T04:22:09.729Z,1128.19
2018-09-14T04:23:09.739Z,1128.15
2018-09-14T04:24:09.739Z,1128.27
2018-09-14T04:25:09.713Z,1128.3
2018-09-14T04:26:09.729Z,1128.12
2018-09-14T04:27:09.759Z,1128.19
2018-09-14T04:28:09.748Z,1128.18
2018-09-14T04:29:09.747Z,1128.11
2018-09-14T04:30:09.746Z,1128.13
2018-09-14T04:31:09.732Z,1128.14
2018-09-14T04:32:09.748Z,1128.2
2018-09-14T04:33:09.751Z,1128
2018-09-14T04:34:09.752Z,1127.97
2018-09-14T04:35:09.756Z,1127.97
2018-09-14T04:36:09.766Z,1128.06
2018-09-14T04:37:09.735Z,1127.94
2018-09-14T04:38:09.810Z,1127.91
2018-09-14T04:39:09.749Z,1127.9
2018-09-14T04:40:09.856Z,1127.9
2018-09-14T04:41:09.761Z,1127.95
2018-09-14T04:42:09.752Z,1127.93
2018-09-14T04:43:09.765Z,1127.97
2018-09-14T04:44:09.746Z,1128
2018-09-14T04:45:09.758Z,1128
2018-09-14T04:46:09.837Z,1128.07
2018-09-14T04:47:09.769Z,1128.12
2018-09-14T04:48:09.790Z,1128.12
2018-09-14T04:49:09.774Z,1128.1
2018-09-14T04:50:09.779Z,1128.04
2018-09-14T04:51:09.800Z,1128.1
2018-09-14T04:52:09.777Z,1128.04
2018-09-14T04:53:09.845Z,1128.02
2018-09-14T04:54:09.855Z,1128.02
2018-09-14T04:55:09.777Z,1127.9
2018-09-14T04:56:09.798Z,1128.01
2018-09-14T04:57:09.800Z,1127.98
2018-09-14T04:58:09.792Z,1127.91
2018-09-14T04:59:09.782Z,1127.8
2018-09-14T05:00:09.779Z,1127.87
2018-09-14T05:01:09.795Z,1127.73
2018-09-14T05:02:09.790Z,1127.69
2018-09-14T05:03:09.864Z,1127.66
2018-09-14T05:04:09.800Z,1127.61
2018-09-14T05:05:09.802Z,1127.48
2018-09-14T05:06:09.786Z,1127.5
2018-09-14T05:07:09.788Z,1127.44
2018-09-14T05:08:09.804Z,1127.46
2018-09-14T05:09:09.797Z,1127.49
2018-09-14T05:10:09.811Z,1127.54
2018-09-14T05:11:09.814Z,1127.54
2018-09-14T05:12:09.825Z,1127.52
2018-09-14T05:13:09.795Z,1127.48
2018-09-14T05:14:09.829Z,1127.43
2018-09-14T05:15:09.807Z,1127.44
2018-09-14T05:16:09.804Z,1127.32
2018-09-14T05:17:09.812Z,1127.39
2018-09-14T05:18:09.889Z,1127.4
2018-09-14T05:19:09.808Z,1127.48
2018-09-14T05:20:09.819Z,1127.46
2018-09-14T05:21:09.817Z,1127.56
2018-09-14T05:22:09.885Z,1127.58
2018-09-14T05:23:09.820Z,1127.58
2018-09-14T05:24:09.990Z,1127.7
2018-09-14T05:25:09.927Z,1127.69
2018-09-14T05:26:09.851Z,1127.73
2018-09-14T05:27:09.853Z,1127.73
2018-09-14T05:28:09.821Z,1127.72
2018-09-14T05:29:09.829Z,1127.59
2018-09-14T05:30:09.828Z,1127.54
2018-09-14T05:31:09.852Z,1127.55
2018-09-14T05:32:09.853Z,1127.52
2018-09-14T05:33:09.841Z,1127.51
2018-09-14T05:34:09.827Z,1127.56
2018-09-14T05:35:09.851Z,1127.64
2018-09-14T05:36:09.842Z,1127.62
2018-09-14T05:37:09.854Z,1127.61
2018-09-14T05:38:09.879Z,1127.76
2018-09-14T05:39:09.851Z,1127.84
2018-09-14T05:40:09.861Z,1127.95
2018-09-14T05:41:09.841Z,1128.03
2018-09-14T05:42:09.844Z,1128.19
2018-09-14T05:43:09.854Z,1128.24
2018-09-14T05:44:09.863Z,1128.34
2018-09-14T05:45:09.870Z,1128.42
2018-09-14T05:46:09.863Z,1128.62
2018-09-14T05:47:09.882Z,1128.7
2018-09-14T05:48:09.865Z,1128.84
2018-09-14T05:49:09.891Z,1128.95
2018-09-14T05:50:09.876Z,1128.91
2018-09-14T05:51:09.870Z,1128.99
2018-09-14T05:52:09.883Z,1128.96
2018-09-14T05:53:09.873Z,1129.06
2018-09-14T05:54:09.865Z,1129.17
2018-09-14T05:55:09.888Z,1129.22
2018-09-14T05:56:09.889Z,1129.3
2018-09-14T05:57:09.887Z,1129.32
2018-09-14T05:58:09.910Z,1129.41
2018-09-14T05:59:09.894Z,1129.46
2018-09-14T06:00:09.885Z,1129.62
2018-09-14T06:09:00.033Z,1130.04
2018-09-14T06:09:59.959Z,1130.05
2018-09-14T06:10:59.937Z,1130.13
2018-09-14T06:11:59.914Z,1130.17
2018-09-14T06:12:59.950Z,1130.26
2018-09-14T06:14:00.711Z,1130.34
2018-09-14T06:14:59.923Z,1130.34
2018-09-14T06:15:59.933Z,1130.49
2018-09-14T06:17:00.011Z,1130.53
2018-09-14T06:17:59.944Z,1130.68
2018-09-14T06:18:59.941Z,1130.71
2018-09-14T06:19:59.928Z,1130.91
2018-09-14T06:20:59.956Z,1131.11
2018-09-14T06:21:59.940Z,1131.22
2018-09-14T06:23:00.002Z,1131.35
2018-09-14T06:23:59.952Z,1131.43
2018-09-14T06:24:59.948Z,1131.5
2018-09-14T06:25:59.959Z,1131.65
2018-09-14T06:26:59.959Z,1131.72
2018-09-14T06:27:59.946Z,1131.86
2018-09-14T06:28:59.956Z,1131.97
2018-09-14T06:29:59.964Z,1132.06
2018-09-14T06:31:00.005Z,1132.18
2018-09-14T06:31:59.968Z,1132.31
2018-09-14T06:33:00.044Z,1132.43
2018-09-14T06:33:59.949Z,1132.5
2018-09-14T06:34:59.967Z,1132.65
2018-09-14T06:35:59.969Z,1132.79
2018-09-14T06:36:59.960Z,1132.9
2018-09-14T06:37:59.968Z,1133.03
2018-09-14T06:38:59.970Z,1133.05
2018-09-14T06:39:59.976Z,1133.17
2018-09-14T06:40:59.959Z,1133.29
2018-09-14T06:41:59.976Z,1133.36
2018-09-14T06:42:59.961Z,1133.43
2018-09-14T06:43:59.975Z,1133.48
2018-09-14T06:45:00.043Z,1133.57
2018-09-14T06:46:00.000Z,1133.63
2018-09-14T06:46:59.989Z,1133.64
2018-09-14T06:48:00.066Z,1133.64
2018-09-14T06:49:00.000Z,1133.68
2018-09-14T06:49:59.993Z,1133.63
2018-09-14T06:56:39.648Z,1134.22
2018-09-14T06:57:39.689Z,1134.36
2018-09-14T06:58:39.629Z,1134.38
2018-09-14T06:59:39.707Z,1134.42
2018-09-14T07:00:39.656Z,1134.5
2018-09-14T07:01:39.725Z,1134.55
2018-09-14T07:02:39.645Z,1134.59
2018-09-14T07:03:39.707Z,1134.64
2018-09-14T07:04:39.643Z,1134.75
2018-09-14T07:05:39.634Z,1134.87
2018-09-14T07:06:39.649Z,1134.95
2018-09-14T07:07:39.645Z,1135.11
2018-09-14T07:08:39.621Z,1135.26
2018-09-14T07:09:39.663Z,1135.28
2018-09-14T07:10:39.640Z,1135.42
2018-09-14T07:11:39.662Z,1135.5
2018-09-14T07:12:39.656Z,1135.51
2018-09-14T07:13:39.648Z,1135.57
2018-09-14T07:14:39.659Z,1135.55
2018-09-14T07:15:39.742Z,1135.6
2018-09-14T07:16:39.711Z,1135.6
2018-09-14T07:17:39.643Z,1135.63
2018-09-14T07:18:39.649Z,1135.66
2018-09-14T07:19:39.668Z,1135.58
2018-09-14T07:20:39.673Z,1135.59
2018-09-14T07:21:39.710Z,1135.6
2018-09-14T07:22:39.653Z,1135.6
2018-09-14T07:23:39.649Z,1135.6
2018-09-14T07:24:39.784Z,1135.64
2018-09-14T07:25:39.661Z,1135.67
2018-09-14T07:26:39.681Z,1135.64
2018-09-14T07:27:39.682Z,1135.7
2018-09-14T07:28:39.698Z,1135.68
2018-09-14T07:29:39.696Z,1135.68
2018-09-14T07:30:39.672Z,1135.65
2018-09-14T07:37:19.825Z,1135.61
2018-09-14T07:38:19.779Z,1135.62
2018-09-14T07:39:19.763Z,1135.64
2018-09-14T07:40:19.760Z,1135.61
2018-09-14T07:41:19.801Z,1135.56
2018-09-14T07:42:19.831Z,1135.55
2018-09-14T07:43:19.781Z,1135.58
2018-09-14T07:44:19.767Z,1135.51
2018-09-14T07:45:19.771Z,1135.46
2018-09-14T07:46:19.796Z,1135.45
2018-09-14T07:47:19.773Z,1135.37
2018-09-14T07:48:19.874Z,1135.41
2018-09-14T07:49:19.796Z,1135.36
2018-09-14T07:50:19.800Z,1135.31
2018-09-14T07:51:19.793Z,1135.29
2018-09-14T07:52:19.780Z,1135.28
2018-09-14T07:53:19.789Z,1135.27
2018-09-14T07:54:19.815Z,1135.26
2018-09-14T07:55:19.884Z,1135.28
2018-09-14T07:56:19.776Z,1135.31
2018-09-14T07:57:19.802Z,1135.4
2018-09-14T07:58:19.793Z,1135.38
2018-09-14T07:59:19.849Z,1135.49
2018-09-14T08:00:19.801Z,1135.54
2018-09-14T08:01:19.839Z,1135.6
2018-09-14T08:02:19.812Z,1135.63
2018-09-14T08:03:19.811Z,1135.66
2018-09-14T08:04:19.794Z,1135.67
2018-09-14T08:05:19.805Z,1135.67
2018-09-14T08:06:19.911Z,1135.62
2018-09-14T08:07:19.802Z,1135.62
2018-09-14T08:08:19.809Z,1135.63
2018-09-14T08:09:19.840Z,1135.58
2018-09-14T08:10:19.820Z,1135.51
2018-09-14T08:11:19.827Z,1135.45
2018-09-14T08:12:19.830Z,1135.29
2018-09-14T08:13:19.907Z,1135.15
2018-09-14T08:14:19.812Z,1134.97
2018-09-14T08:15:19.849Z,1134.75
2018-09-14T08:16:19.855Z,1134.5
2018-09-14T08:17:19.859Z,1134.23
2018-09-14T08:18:19.842Z,1133.99
2018-09-14T08:19:19.821Z,1133.68
2018-09-14T08:20:19.958Z,1133.25
2018-09-14T08:21:20.023Z,1132.82
2018-09-14T08:22:19.868Z,1132.36
2018-09-14T08:23:19.839Z,1131.95
2018-09-14T08:24:19.870Z,1131.49
2018-09-14T08:25:19.843Z,1131.25
2018-09-14T08:26:19.861Z,1131.02
2018-09-14T08:27:19.928Z,1130.94
2018-09-14T08:28:19.868Z,1130.89
2018-09-14T08:29:19.838Z,1130.88
2018-09-14T08:35:57.411Z,1131.27
2018-09-14T08:36:57.449Z,1131.28
2018-09-14T08:37:57.375Z,1131.29
2018-09-14T08:38:57.378Z,1131.24
2018-09-14T08:39:57.378Z,1131.17
2018-09-14T08:40:57.440Z,1130.8
2018-09-14T08:41:57.401Z,1130.68
2018-09-14T08:42:57.376Z,1130.63
2018-09-14T08:43:57.372Z,1130.5
2018-09-14T08:44:57.388Z,1130.24
2018-09-14T08:45:57.399Z,1130.06
2018-09-14T08:46:57.402Z,1130
2018-09-14T08:47:57.468Z,1129.78
2018-09-14T08:48:57.412Z,1128.93
2018-09-14T08:49:57.393Z,1128.23
2018-09-14T08:50:57.394Z,1127.35
2018-09-14T08:51:57.399Z,1126.04
2018-09-14T08:52:57.401Z,1124.94
2018-09-14T08:53:57.435Z,1124.31
2018-09-14T08:54:57.421Z,1123.78
2018-09-14T08:55:57.427Z,1123.32
2018-09-14T08:56:57.408Z,1121.55
2018-09-14T08:57:57.420Z,1119.9
2018-09-14T08:58:57.407Z,1118.13
2018-09-14T08:59:57.429Z,1115.66
2018-09-14T09:00:57.506Z,1113.69
2018-09-14T09:01:57.419Z,1110.37
2018-09-14T09:02:57.433Z,1108.04
2018-09-14T09:03:57.453Z,1105.11
2018-09-14T09:04:57.449Z,1102.06
2018-09-14T09:05:57.453Z,1098.56
2018-09-14T09:06:57.456Z,1095.08
2018-09-14T09:07:57.436Z,1091.4
2018-09-14T09:08:57.464Z,1087.47
2018-09-14T09:09:57.439Z,1083.84
2018-09-14T09:10:57.444Z,1080.44
2018-09-14T09:11:57.431Z,1077.35
2018-09-14T09:12:57.499Z,1073.06
2018-09-14T09:13:57.436Z,1067.72
2018-09-14T09:14:57.476Z,1061.33
2018-09-14T09:15:57.449Z,1055.45
2018-09-14T09:16:57.464Z,1051.28
2018-09-14T09:17:57.461Z,1047.55
2018-09-14T09:18:57.484Z,1046.28
2018-09-14T09:19:57.449Z,1047.35
2018-09-14T09:20:57.458Z,1048.11
2018-09-14T09:21:57.488Z,1048.38
2018-09-14T09:22:57.461Z,1049.42
2018-09-14T09:23:57.464Z,1050.71
2018-09-14T09:24:57.472Z,1053.11
2018-09-14T09:25:57.473Z,1055.26
2018-09-14T09:26:57.464Z,1057.07
2018-09-14T09:27:57.471Z,1058.89
2018-09-14T09:28:57.547Z,1061.12
2018-09-14T09:29:57.472Z,1063.08
2018-09-14T09:30:57.560Z,1065.45
2018-09-14T09:31:57.485Z,1068.37
2018-09-14T09:32:57.488Z,1071.06
2018-09-14T09:33:57.464Z,1073.17
2018-09-14T09:34:57.489Z,1073.74
2018-09-14T09:35:57.491Z,1073.99
2018-09-14T09:36:57.478Z,1074.24
2018-09-14T09:37:57.559Z,1074.48
2018-09-14T09:38:57.526Z,1075.18
2018-09-14T09:39:57.502Z,1075.71
2018-09-14T09:40:57.505Z,1076.32
2018-09-14T09:41:57.526Z,1076.81
2018-09-14T09:42:57.553Z,1076.86
2018-09-14T09:43:57.552Z,1076.76
2018-09-14T09:44:57.504Z,1076.97
2018-09-14T09:45:57.513Z,1077.62
2018-09-14T09:46:57.529Z,1077.57
2018-09-14T09:47:57.547Z,1077.85
2018-09-14T09:48:57.503Z,1077.76
2018-09-14T09:49:57.500Z,1077.86
2018-09-14T09:50:57.602Z,1078.18
2018-09-14T09:51:57.554Z,1078.45
2018-09-14T09:52:57.529Z,1078.84
2018-09-14T09:53:57.539Z,1076.92
2018-09-14T09:54:57.530Z,1071.07
2018-09-14T09:55:57.519Z,1066.86
2018-09-14T09:56:57.525Z,1062
2018-09-14T09:57:57.529Z,1057.98
2018-09-14T09:58:57.530Z,1057.3
2018-09-14T09:59:57.546Z,1057.6
2018-09-14T10:00:57.551Z,1057.28
2018-09-14T10:01:57.524Z,1058.8
2018-09-14T10:02:57.547Z,1058.82
2018-09-14T10:03:57.552Z,1059.35
2018-09-14T10:04:57.546Z,1060.16
2018-09-14T10:05:57.529Z,1060.88
2018-09-14T10:06:57.550Z,1061.68
2018-09-14T10:07:57.562Z,1062.15
2018-09-14T10:08:57.556Z,1063.05
2018-09-14T10:09:57.541Z,1065.4
2018-09-14T10:10:57.564Z,1067.87
2018-09-14T10:11:57.614Z,1070.06
2018-09-14T10:12:57.556Z,1072.07
2018-09-14T10:13:57.557Z,1074.01
2018-09-14T10:14:57.535Z,1076.06
2018-09-14T10:15:57.543Z,1077.55
2018-09-14T10:16:57.574Z,1078.83
2018-09-14T10:17:57.557Z,1079.6
2018-09-14T10:18:57.577Z,1080.55
2018-09-14T10:19:57.664Z,1080.95
2018-09-14T10:20:57.681Z,1077.87
2018-09-14T10:21:57.566Z,1072.48
2018-09-14T10:22:57.558Z,1067.23
2018-09-14T10:23:57.589Z,1063.43
2018-09-14T10:24:57.572Z,1060.18
2018-09-14T10:25:57.877Z,1053.52
2018-09-14T10:26:57.690Z,1046.8
2018-09-14T10:27:57.587Z,1041.73
2018-09-14T10:28:57.645Z,1042.78
2018-09-14T10:29:57.600Z,1042.87
2018-09-14T10:30:57.592Z,1042.49
2018-09-14T10:31:57.646Z,1040.64
2018-09-14T10:32:57.588Z,1039.75
2018-09-14T10:33:57.687Z,1040.7
2018-09-14T10:34:57.624Z,1042.42
2018-09-14T10:35:57.661Z,1043.72
2018-09-14T10:36:57.593Z,1045.5
2018-09-14T10:37:58.209Z,1045.27
2018-09-14T10:38:57.591Z,1045.27
2018-09-14T10:39:57.609Z,1046.51
2018-09-14T10:40:57.609Z,1048.43
2018-09-14T10:41:57.612Z,1051.18
2018-09-14T10:42:57.664Z,1054.26
2018-09-14T10:43:57.693Z,1057.14
2018-09-14T10:44:57.633Z,1059.61
2018-09-14T10:45:57.619Z,1061.44
2018-09-14T10:46:57.616Z,1063.71
2018-09-14T10:47:57.610Z,1065.83
2018-09-14T10:48:57.686Z,1067.56
2018-09-14T10:49:57.667Z,1068.82
2018-09-14T10:50:57.640Z,1069.78
2018-09-14T10:51:57.633Z,1070.71
2018-09-14T10:52:57.609Z,1071.51
2018-09-14T10:53:57.648Z,1072.22
2018-09-14T10:54:57.755Z,1073.05
2018-09-14T10:55:57.626Z,1073.69
2018-09-14T10:56:57.633Z,1074.42
2018-09-14T10:57:57.689Z,1075.29
2018-09-14T10:58:57.696Z,1076.22
2018-09-14T10:59:57.615Z,1077.3
2018-09-14T11:00:57.704Z,1078.99
2018-09-14T11:01:57.742Z,1079.77
2018-09-14T11:02:57.626Z,1080.17
2018-09-14T11:03:57.646Z,1079.98
2018-09-14T11:04:57.649Z,1079.42
2018-09-14T11:05:58.132Z,1079.32
2018-09-14T11:06:57.776Z,1079.01
2018-09-14T11:07:57.665Z,1078.73
2018-09-14T11:08:57.654Z,1078.19
2018-09-14T11:09:57.721Z,1077.49
2018-09-14T11:10:57.656Z,1076.5
2018-09-14T11:11:57.673Z,1075.44
2018-09-14T11:12:57.686Z,1074.83
2018-09-14T11:13:57.653Z,1074.99
2018-09-14T11:14:57.681Z,1075.24
2018-09-14T11:15:57.666Z,1075.33
2018-09-14T11:16:57.686Z,1075.07
2018-09-14T11:17:57.677Z,1074.41
2018-09-14T11:18:57.842Z,1073.44
2018-09-14T11:19:57.652Z,1072.1
2018-09-14T11:20:57.677Z,1070.64
2018-09-14T11:21:57.729Z,1069.89
2018-09-14T11:22:57.704Z,1069.01
2018-09-14T11:23:57.676Z,1068.38
2018-09-14T11:24:57.760Z,1068.15
2018-09-14T11:25:57.685Z,1067.8
2018-09-14T11:26:57.668Z,1066.58
2018-09-14T11:27:58.085Z,1064.32
2018-09-14T11:28:57.737Z,1062.23
2018-09-14T11:29:57.694Z,1057.06
2018-09-14T11:30:58.043Z,1050.16
2018-09-14T11:31:57.713Z,1043.51
2018-09-14T11:32:57.693Z,1036.62
2018-09-14T11:33:58.249Z,1031.63
2018-09-14T11:34:57.716Z,1030.56
2018-09-14T11:35:57.720Z,1029.76
2018-09-14T11:36:57.687Z,1029.76
2018-09-14T11:37:58.170Z,1030.81
2018-09-14T11:38:57.727Z,1032.2
2018-09-14T11:39:57.708Z,1034.39
2018-09-14T11:40:57.795Z,1035.7
2018-09-14T11:41:57.731Z,1037.29
2018-09-14T11:42:57.718Z,1037.98
2018-09-14T11:43:57.739Z,1038.74
2018-09-14T11:44:57.718Z,1039.18
2018-09-14T11:45:57.745Z,1039.31
2018-09-14T11:46:57.733Z,1038.49
2018-09-14T11:47:57.726Z,1037.83
2018-09-14T11:48:57.726Z,1036.62
2018-09-14T11:50:14.640Z,1035.23
2018-09-14T11:51:14.579Z,1035.27
2018-09-14T11:52:14.632Z,1035.9
2018-09-14T11:53:14.568Z,1036.9
2018-09-14T11:54:14.623Z,1037.8
2018-09-14T11:55:14.785Z,1038.01
2018-09-14T11:56:14.575Z,1038.94
2018-09-14T11:57:14.650Z,1040.03
2018-09-14T11:58:14.611Z,1041.25
2018-09-14T11:59:14.643Z,1042.35
2018-09-14T12:00:14.670Z,1043.94
2018-09-14T12:01:14.631Z,1045.7
2018-09-14T12:02:14.571Z,1046.94
2018-09-14T12:03:14.575Z,1047.56
2018-09-14T12:12:04.122Z,1040.42
2018-09-14T12:13:04.059Z,1038.6
2018-09-14T12:14:04.152Z,1036.52
2018-09-14T12:15:04.080Z,1033.9
2018-09-14T12:16:04.088Z,1030.67
2018-09-14T12:17:04.085Z,1026.65
2018-09-14T12:18:04.095Z,1024.27
2018-09-14T12:19:04.065Z,1021.47
2018-09-14T12:20:04.079Z,1019.26
2018-09-14T12:21:04.087Z,1014.65
2018-09-14T12:22:04.099Z,1009.24
2018-09-14T12:23:04.105Z,1004.05
2018-09-14T12:24:04.094Z,998.85
2018-09-14T12:25:04.103Z,993.58
2018-09-14T12:26:04.076Z,987.97
2018-09-14T12:27:04.098Z,982.24
2018-09-14T12:28:04.086Z,976.85
2018-09-14T12:29:04.100Z,971.74
2018-09-14T12:30:04.122Z,967.02
2018-09-14T12:31:04.116Z,962.59
2018-09-14T12:32:04.101Z,961.96
2018-09-14T12:33:04.170Z,961.95
2018-09-14T12:34:04.106Z,960.8
2018-09-14T12:35:04.170Z,958.81
2018-09-14T12:36:04.109Z,955.56
2018-09-14T12:37:04.124Z,952.71
2018-09-14T12:38:04.127Z,950.14
2018-09-14T12:39:04.130Z,948.78
2018-09-14T12:40:04.187Z,946.46
2018-09-14T12:41:04.106Z,943.9
2018-09-14T12:42:04.194Z,941.43
2018-09-14T12:43:04.198Z,938.38
2018-09-14T12:44:04.134Z,934.55
2018-09-14T12:45:04.202Z,930.2
2018-09-14T12:46:04.115Z,925.62
2018-09-14T12:47:04.128Z,921.45
2018-09-14T12:48:04.215Z,919.07
2018-09-14T12:49:04.124Z,915.69
2018-09-14T12:50:04.587Z,911.17
2018-09-14T12:51:04.140Z,905.85
2018-09-14T12:52:04.234Z,905.29
2018-09-14T12:53:04.152Z,903.52
2018-09-14T12:54:04.220Z,902.65
2018-09-14T12:55:04.133Z,901.65
2018-09-14T12:56:04.239Z,904.73
2018-09-14T12:57:04.393Z,912.76
2018-09-14T12:58:04.233Z,919.67
2018-09-14T12:59:04.174Z,925.61
2018-09-14T13:00:04.167Z,931.12
2018-09-14T13:01:04.165Z,936.21
2018-09-14T13:02:04.173Z,941.85
2018-09-14T13:03:04.226Z,945.13
2018-09-14T13:04:04.224Z,948.72
2018-09-14T13:05:04.203Z,949.04
2018-09-14T13:06:04.250Z,952.61
2018-09-14T13:07:04.214Z,957.97
2018-09-14T13:08:04.165Z,963.03
2018-09-14T13:09:04.166Z,966.53
2018-09-14T13:10:04.194Z,969.62
2018-09-14T13:11:04.486Z,972.22
2018-09-14T13:12:04.213Z,975.1
2018-09-14T13:13:04.202Z,974.58
2018-09-14T13:14:04.204Z,976.44
2018-09-14T13:15:04.387Z,978.64
2018-09-14T13:16:04.196Z,978.76
2018-09-14T13:17:04.247Z,980.75
2018-09-14T13:18:04.180Z,977.38
2018-09-14T13:19:04.223Z,973.93
2018-09-14T13:20:04.222Z,969.81
2018-09-14T13:21:04.215Z,965.6